Time;durP1;ratioP1;P1;durP2;ratioP2;P2;SDS_P1;SDS_P2;PMS_P1;PMS_P2;Temp;Humidity;BMP_temperature;BMP_pressure;BME280_temperature;BME280_humidity;BME280_pressure;Samples;Min_cycle;Max_cycle;Signal;HPM_P1;HPM_P2
2023/05/14 00:00:14;;;;;;;4.40;3.90;;;;;;;14.27;70.37;148663.66;5052127;28;20224;-53
2023/05/14 00:02:42;;;;;;;3.90;3.60;;;;;;;14.27;70.40;148664.94;5052598;28;20717;-54
2023/05/14 00:05:10;;;;;;;3.97;3.60;;;;;;;14.18;70.93;148642.25;5052301;28;20259;-54
2023/05/14 00:07:37;;;;;;;4.13;3.53;;;;;;;14.20;71.19;148647.31;5052470;28;20283;-53
2023/05/14 00:10:04;;;;;;;4.10;3.67;;;;;;;14.18;71.43;148643.50;5052035;28;20193;-56
2023/05/14 00:12:31;;;;;;;9.00;3.97;;;;;;;14.17;70.71;148639.72;5051892;28;20299;-56
2023/05/14 00:14:58;;;;;;;6.77;3.97;;;;;;;14.24;70.91;148656.09;5051761;28;20193;-53
2023/05/14 00:17:26;;;;;;;7.00;4.27;;;;;;;14.20;70.73;148646.03;5052035;28;20699;-53
2023/05/14 00:19:53;;;;;;;3.73;3.47;;;;;;;14.09;71.50;148619.56;5051589;28;20235;-52
2023/05/14 00:22:20;;;;;;;3.73;3.50;;;;;;;14.08;70.92;148617.03;5051659;28;20200;-56
2023/05/14 00:24:47;;;;;;;3.70;3.43;;;;;;;14.09;70.52;148620.81;5051516;28;20201;-56
2023/05/14 00:27:14;;;;;;;5.90;3.47;;;;;;;14.04;70.65;148606.94;5051490;28;20202;-53
2023/05/14 00:29:41;;;;;;;3.87;3.57;;;;;;;13.99;70.90;148595.63;5051596;28;20199;-55
2023/05/14 00:32:08;;;;;;;4.60;3.60;;;;;;;14.01;70.38;148600.63;5051734;28;20687;-53
2023/05/14 00:34:36;;;;;;;3.97;3.40;;;;;;;13.96;71.10;148586.78;5051726;28;20291;-55
2023/05/14 00:37:03;;;;;;;8.23;3.60;;;;;;;13.97;70.60;148589.31;5051528;28;20596;-55
2023/05/14 00:39:30;;;;;;;7.30;3.43;;;;;;;14.03;70.62;148604.41;5051392;28;20736;-55
2023/05/14 00:41:57;;;;;;;3.57;3.07;;;;;;;14.01;71.06;148600.63;5051055;28;20200;-55
2023/05/14 00:44:24;;;;;;;3.30;3.10;;;;;;;14.03;70.81;148604.41;5051177;28;20296;-55
2023/05/14 00:46:51;;;;;;;6.70;3.23;;;;;;;13.99;71.33;148594.34;5051043;28;20287;-55
2023/05/14 00:49:18;;;;;;;4.27;3.33;;;;;;;14.02;71.78;148603.13;5051053;28;20202;-54
2023/05/14 00:51:47;;;;;;;4.63;3.57;;;;;;;14.05;71.54;148609.47;5051279;28;20200;-52
2023/05/14 00:54:14;;;;;;;3.37;3.17;;;;;;;14.07;71.89;148615.78;5051306;28;20691;-53
2023/05/14 00:56:42;;;;;;;3.63;3.43;;;;;;;14.07;71.98;148614.50;5051205;28;20653;-52
2023/05/14 00:59:09;;;;;;;3.43;3.13;;;;;;;14.08;72.07;148617.03;5050846;28;20224;-52
2023/05/14 01:01:36;;;;;;;3.77;3.47;;;;;;;14.09;71.99;148620.81;5050756;28;20193;-54
2023/05/14 01:04:03;;;;;;;6.90;3.87;;;;;;;14.10;72.44;148622.09;5050735;28;20583;-55
2023/05/14 01:06:39;;;;;;;4.10;3.80;;;;;;;14.06;72.48;148611.97;5050311;28;20197;-56
2023/05/14 01:09:13;;;;;;;4.27;3.87;;;;;;;14.00;72.57;148596.84;5050755;28;20660;-55
2023/05/14 01:11:45;;;;;;;4.80;4.07;;;;;;;13.99;72.29;148595.63;5050775;28;20272;-52
2023/05/14 01:14:21;;;;;;;3.60;3.40;;;;;;;13.94;72.15;148582.97;5050825;28;20695;-55
2023/05/14 01:16:50;;;;;;;5.17;3.33;;;;;;;13.91;71.33;148574.16;5050751;28;20200;-52
2023/05/14 01:19:27;;;;;;;3.60;3.30;;;;;;;13.86;71.64;148562.81;5050679;28;20216;-52
2023/05/14 01:21:55;;;;;;;4.47;3.37;;;;;;;13.84;72.00;148556.53;5050466;28;20203;-52
2023/05/14 01:24:22;;;;;;;4.53;3.60;;;;;;;13.80;72.03;148548.94;5050475;28;20200;-52
2023/05/14 01:26:49;;;;;;;9.40;3.67;;;;;;;13.76;72.82;148537.63;5050359;28;20193;-53
2023/05/14 01:29:23;;;;;;;4.10;3.80;;;;;;;13.69;72.88;148519.94;5050546;28;20193;-53
2023/05/14 01:31:51;;;;;;;4.13;3.83;;;;;;;13.71;73.11;148526.25;5050371;28;20196;-52
2023/05/14 01:34:21;;;;;;;4.67;3.83;;;;;;;13.74;73.45;148532.56;5050281;28;20203;-54
2023/05/14 01:36:49;;;;;;;4.30;4.00;;;;;;;13.73;73.62;148530.03;5050256;28;20209;-54
2023/05/14 01:39:18;;;;;;;6.80;4.97;;;;;;;13.70;74.19;148523.75;5050385;28;20203;-54
2023/05/14 01:41:46;;;;;;;5.03;3.63;;;;;;;13.69;74.03;148521.22;5050240;28;20202;-56
2023/05/14 01:44:14;;;;;;;5.07;3.70;;;;;;;13.64;74.47;148507.38;5050167;28;20200;-54
2023/05/14 01:46:41;;;;;;;6.20;4.13;;;;;;;13.67;75.06;148514.91;5050007;28;20236;-55
2023/05/14 01:49:07;;;;;;;5.87;4.23;;;;;;;13.53;75.74;148480.91;5050241;28;20199;-53
2023/05/14 01:51:34;;;;;;;3.90;3.60;;;;;;;13.50;76.44;148472.06;5050696;28;20197;-52
2023/05/14 01:54:01;;;;;;;5.10;3.90;;;;;;;13.51;76.95;148475.84;5050044;28;20203;-52
2023/05/14 01:56:30;;;;;;;4.37;4.07;;;;;;;13.46;76.82;148463.22;5050185;28;20203;-51
2023/05/14 01:58:56;;;;;;;4.53;4.00;;;;;;;13.38;77.26;148443.09;5049924;28;20322;-51
2023/05/14 02:01:24;;;;;;;4.47;3.90;;;;;;;13.39;77.16;148446.88;5049895;28;20235;-52
2023/05/14 02:03:51;;;;;;;7.13;3.77;;;;;;;13.36;76.71;148438.03;5050292;28;20211;-55
2023/05/14 02:06:18;;;;;;;5.33;3.97;;;;;;;13.22;77.22;148402.75;5050211;28;20200;-55
2023/05/14 02:08:45;;;;;;;4.07;3.77;;;;;;;13.23;77.12;148406.53;5050069;28;20201;-55
2023/05/14 02:11:12;;;;;;;4.30;3.80;;;;;;;13.24;77.28;148409.06;5049830;28;20288;-52
2023/05/14 02:13:40;;;;;;;4.03;3.70;;;;;;;13.20;77.43;148399.00;5049796;28;20207;-53
2023/05/14 02:16:07;;;;;;;4.13;3.80;;;;;;;13.08;77.73;148368.72;5050085;28;20238;-55
2023/05/14 02:18:34;;;;;;;4.80;4.27;;;;;;;13.03;78.22;148357.34;5050281;28;20664;-53
2023/05/14 02:21:01;;;;;;;4.60;4.20;;;;;;;12.99;77.60;148347.25;5054039;28;20234;-52
2023/05/14 02:23:28;;;;;;;3.87;3.57;;;;;;;12.93;78.14;148332.16;5054081;28;20222;-53
2023/05/14 02:25:55;;;;;;;4.30;3.97;;;;;;;12.94;78.10;148333.44;5053887;28;20283;-52
2023/05/14 02:28:22;;;;;;;4.57;4.00;;;;;;;12.99;78.12;148347.25;5053918;28;20211;-51
2023/05/14 02:30:50;;;;;;;6.67;4.00;;;;;;;12.98;77.66;148344.72;5054154;28;20201;-53
2023/05/14 02:33:17;;;;;;;3.87;3.43;;;;;;;12.99;77.90;148347.25;5053679;28;20197;-53
2023/05/14 02:35:44;;;;;;;4.37;3.83;;;;;;;13.01;77.64;148352.31;5053986;28;20196;-52
2023/05/14 02:38:11;;;;;;;4.87;4.43;;;;;;;13.04;77.63;148358.63;5053803;28;20200;-55
2023/05/14 02:40:38;;;;;;;4.27;3.87;;;;;;;13.00;77.59;148348.53;5053360;28;20307;-53
2023/05/14 02:43:05;;;;;;;5.43;3.73;;;;;;;12.97;77.87;148342.25;5053506;28;20201;-55
2023/05/14 02:45:31;;;;;;;7.87;4.40;;;;;;;12.93;78.37;148332.16;5053680;28;20193;-55
2023/05/14 02:48:00;;;;;;;7.13;4.13;;;;;;;12.93;78.34;148332.16;5053625;28;20577;-52
2023/05/14 02:50:27;;;;;;;4.10;3.80;;;;;;;12.91;78.62;148325.84;5053415;28;20189;-56
2023/05/14 02:52:54;;;;;;;4.17;3.77;;;;;;;12.88;78.75;148319.53;5053479;28;20203;-55
2023/05/14 02:55:21;;;;;;;4.40;4.00;;;;;;;12.89;79.32;148320.81;5053269;28;20192;-55
2023/05/14 02:57:48;;;;;;;4.20;3.80;;;;;;;12.90;78.18;148323.34;5053242;28;20263;-56
2023/05/14 03:00:15;;;;;;;4.53;3.67;;;;;;;12.95;78.57;148337.22;5053368;28;20614;-56
2023/05/14 03:02:42;;;;;;;4.20;3.90;;;;;;;12.95;78.77;148337.22;5053335;28;20597;-55
2023/05/14 03:05:11;;;;;;;6.43;4.53;;;;;;;13.06;77.96;148364.94;5052824;28;20197;-55
2023/05/14 03:07:38;;;;;;;4.43;4.00;;;;;;;13.01;78.59;148352.31;5053139;28;20211;-53
2023/05/14 03:10:06;;;;;;;7.80;3.87;;;;;;;12.95;79.08;148335.94;5052938;28;20197;-52
2023/05/14 03:12:32;;;;;;;6.50;5.90;;;;;;;12.94;79.96;148334.69;5052848;28;20197;-53
2023/05/14 03:14:59;;;;;;;7.00;5.13;;;;;;;12.97;80.86;148341.00;5053001;28;20215;-55
2023/05/14 03:17:26;;;;;;;4.47;4.17;;;;;;;13.00;80.72;148348.53;5053105;28;20205;-55
2023/05/14 03:19:53;;;;;;;4.27;3.97;;;;;;;13.00;81.04;148349.78;5052885;28;20328;-52
2023/05/14 03:22:21;;;;;;;4.73;4.33;;;;;;;12.90;82.16;148324.59;5052728;28;20207;-52
2023/05/14 03:24:48;;;;;;;5.03;4.53;;;;;;;12.90;82.60;148323.34;5052752;28;20201;-55
2023/05/14 03:27:15;;;;;;;4.90;4.37;;;;;;;12.90;82.87;148323.34;5052690;28;20200;-56
2023/05/14 03:29:42;;;;;;;4.97;4.57;;;;;;;12.94;82.07;148334.69;5052277;28;20201;-55
2023/05/14 03:32:09;;;;;;;4.57;4.17;;;;;;;12.97;81.43;148342.25;5052520;28;20579;-52
2023/05/14 03:34:36;;;;;;;7.47;4.50;;;;;;;13.03;81.23;148356.09;5052616;28;20278;-53
2023/05/14 03:37:03;;;;;;;7.53;4.10;;;;;;;13.09;81.01;148371.25;5052450;28;20192;-52
2023/05/14 03:39:32;;;;;;;4.60;4.30;;;;;;;12.98;81.50;148343.53;5052767;28;20192;-52
2023/05/14 03:41:59;;;;;;;6.80;4.50;;;;;;;12.99;81.74;148347.25;5052721;28;20217;-52
2023/05/14 03:44:26;;;;;;;5.40;4.43;;;;;;;12.95;82.69;148335.94;5052604;28;20274;-53
2023/05/14 03:46:53;;;;;;;4.67;4.10;;;;;;;13.00;83.25;148348.53;5052878;28;20680;-52
2023/05/14 03:49:19;;;;;;;4.43;4.03;;;;;;;12.97;83.74;148342.25;5052355;28;20234;-55
2023/05/14 03:51:46;;;;;;;5.00;4.50;;;;;;;12.99;83.29;148347.25;5052126;28;20204;-56
2023/05/14 03:54:13;;;;;;;4.63;4.20;;;;;;;13.05;84.23;148361.16;5052099;28;20196;-54
2023/05/14 03:56:41;;;;;;;4.17;3.80;;;;;;;13.04;83.27;148358.63;5051890;28;20262;-55
2023/05/14 03:59:08;;;;;;;4.63;4.33;;;;;;;13.02;82.51;148354.84;5052181;28;20283;-55
2023/05/14 04:01:35;;;;;;;4.87;4.37;;;;;;;12.97;84.04;148341.00;5052159;28;20382;-54
2023/05/14 04:04:02;;;;;;;5.33;4.80;;;;;;;12.96;84.58;148339.75;5051961;28;20254;-55
2023/05/14 04:06:29;;;;;;;7.63;4.03;;;;;;;13.08;83.52;148368.72;5052428;28;20319;-55
2023/05/14 04:08:56;;;;;;;11.33;4.80;;;;;;;13.19;86.84;148396.47;5051984;28;20201;-56
2023/05/14 04:11:23;;;;;;;8.03;4.37;;;;;;;13.21;84.52;148400.22;5051340;28;20801;-54
2023/05/14 04:13:52;;;;;;;8.37;4.67;;;;;;;13.21;84.75;148400.22;5050378;28;20199;-55
2023/05/14 04:16:18;;;;;;;4.93;4.50;;;;;;;13.25;84.82;148411.56;5050428;28;20192;-57
2023/05/14 04:18:45;;;;;;;4.77;4.20;;;;;;;13.31;84.41;148426.72;5050992;28;20207;-56
2023/05/14 04:21:12;;;;;;;7.57;3.87;;;;;;;13.34;83.96;148432.97;5051791;28;20645;-55
2023/05/14 04:23:39;;;;;;;6.07;4.57;;;;;;;13.41;82.74;148451.91;5051551;28;20196;-55
2023/05/14 04:26:06;;;;;;;4.67;4.23;;;;;;;13.40;83.59;148448.13;5051546;28;20200;-55
2023/05/14 04:28:33;;;;;;;4.87;4.40;;;;;;;13.45;83.52;148460.72;5050207;28;20279;-56
2023/05/14 04:31:02;;;;;;;5.50;5.10;;;;;;;13.53;83.08;148480.91;5050515;28;20625;-55
2023/05/14 04:33:29;;;;;;;8.83;5.57;;;;;;;13.55;82.96;148485.91;5051342;28;20204;-55
2023/05/14 04:35:56;;;;;;;6.30;5.80;;;;;;;13.68;82.43;148518.69;5051600;28;20264;-55
2023/05/14 04:38:23;;;;;;;6.03;5.53;;;;;;;13.76;82.37;148537.63;5050660;28;20196;-56
2023/05/14 04:40:50;;;;;;;5.60;4.80;;;;;;;13.77;82.30;148541.38;5051136;28;20316;-51
2023/05/14 04:43:17;;;;;;;4.90;4.50;;;;;;;13.86;81.98;148561.56;5050459;28;20202;-52
2023/05/14 04:45:44;;;;;;;7.17;4.80;;;;;;;14.03;81.58;148604.41;5051276;28;20201;-49
2023/05/14 04:48:12;;;;;;;5.33;4.83;;;;;;;14.02;81.24;148601.88;5051211;28;20200;-51
2023/05/14 04:50:40;;;;;;;6.53;4.70;;;;;;;14.03;81.59;148605.66;5050383;28;20193;-55
2023/05/14 04:53:07;;;;;;;6.57;5.23;;;;;;;14.05;81.63;148610.72;5051117;28;20283;-49
2023/05/14 04:55:33;;;;;;;11.77;5.30;;;;;;;13.96;82.72;148586.78;5051077;28;20203;-51
2023/05/14 04:58:00;;;;;;;6.43;5.77;;;;;;;13.91;84.00;148574.16;5050916;28;20307;-52
2023/05/14 05:00:28;;;;;;;10.03;5.10;;;;;;;13.93;84.45;148579.19;5050801;28;20675;-51
2023/05/14 05:02:55;;;;;;;8.13;5.03;;;;;;;13.95;84.12;148585.50;5051114;28;20248;-52
2023/05/14 05:05:24;;;;;;;5.30;4.80;;;;;;;14.04;84.78;148608.19;5050848;28;20206;-52
2023/05/14 05:07:51;;;;;;;5.20;4.80;;;;;;;14.14;85.44;148632.16;5050917;28;20279;-52
2023/05/14 05:10:18;;;;;;;5.80;5.23;;;;;;;14.26;84.91;148661.16;5050771;28;20289;-55
2023/05/14 05:12:45;;;;;;;6.77;4.80;;;;;;;14.31;84.17;148675.03;5050737;28;20197;-55
2023/05/14 05:15:12;;;;;;;5.20;4.83;;;;;;;14.36;83.89;148687.63;5050543;28;20589;-51
2023/05/14 05:17:39;;;;;;;5.50;5.00;;;;;;;14.43;83.82;148705.34;5050530;28;20200;-52
2023/05/14 05:20:08;;;;;;;5.53;5.03;;;;;;;14.46;83.13;148711.63;5050730;28;20247;-51
2023/05/14 05:22:37;;;;;;;4.87;4.57;;;;;;;14.57;82.86;148738.09;5049712;28;20201;-55
2023/05/14 05:25:05;;;;;;;5.97;5.03;;;;;;;14.56;83.18;148735.63;5050260;28;20201;-55
2023/05/14 05:27:32;;;;;;;19.63;7.50;;;;;;;14.65;84.40;148758.31;5050113;28;20648;-56
2023/05/14 05:29:59;;;;;;;5.27;4.80;;;;;;;14.60;83.49;148745.69;5050412;28;20197;-52
2023/05/14 05:32:26;;;;;;;10.83;5.30;;;;;;;14.51;83.94;148724.25;5050269;28;20193;-52
2023/05/14 05:34:53;;;;;;;8.33;5.50;;;;;;;14.49;84.11;148719.19;5049777;28;20208;-55
2023/05/14 05:37:20;;;;;;;5.63;5.17;;;;;;;14.44;84.55;148707.88;5049696;28;20283;-55
2023/05/14 05:39:48;;;;;;;5.37;4.80;;;;;;;14.44;83.33;148707.88;5041215;28;20231;-55
2023/05/14 05:42:15;;;;;;;5.43;5.03;;;;;;;14.62;83.30;148750.75;5048126;28;20611;-55
2023/05/14 05:44:42;;;;;;;5.47;4.93;;;;;;;14.69;82.37;148768.38;5048933;28;20584;-55
2023/05/14 05:47:09;;;;;;;6.47;5.03;;;;;;;14.78;80.78;148792.38;5050169;28;20211;-51
2023/05/14 05:49:36;;;;;;;6.38;5.65;;;;;;;14.80;80.51;148796.13;5045246;28;20539;-52
2023/05/14 05:52:04;;;;;;;10.17;5.37;;;;;;;14.78;79.81;148792.38;5048720;28;20224;-52
2023/05/14 05:54:32;;;;;;;5.30;4.80;;;;;;;14.80;78.66;148797.41;5049193;28;20217;-52
2023/05/14 05:57:00;;;;;;;6.90;5.20;;;;;;;14.77;78.49;148788.59;5047556;28;20305;-52
2023/05/14 05:59:27;;;;;;;7.47;5.10;;;;;;;14.73;78.37;148779.75;5048126;28;20196;-51
2023/05/14 06:01:54;;;;;;;6.87;4.60;;;;;;;14.74;78.59;148781.03;5048610;28;20602;-53
2023/05/14 06:04:21;;;;;;;5.63;4.73;;;;;;;14.76;78.77;148786.06;5049759;28;20204;-52
2023/05/14 06:06:48;;;;;;;5.50;5.00;;;;;;;14.79;78.41;148794.88;5049755;28;20279;-51
2023/05/14 06:09:15;;;;;;;11.80;6.10;;;;;;;14.76;77.22;148787.34;5048612;28;20200;-51
2023/05/14 06:11:42;;;;;;;5.70;4.90;;;;;;;14.68;77.87;148767.13;5048532;28;20185;-52
2023/05/14 06:14:11;;;;;;;6.43;5.20;;;;;;;14.82;77.65;148801.19;5048858;28;20224;-52
2023/05/14 06:16:38;;;;;;;5.33;4.93;;;;;;;14.89;76.76;148818.88;5049292;28;20284;-52
2023/05/14 06:19:05;;;;;;;7.50;5.63;;;;;;;14.91;76.40;148823.88;5048670;28;20197;-53
2023/05/14 06:21:32;;;;;;;8.23;5.33;;;;;;;14.81;75.28;148799.94;5048362;28;20216;-51
2023/05/14 06:23:59;;;;;;;5.13;4.63;;;;;;;14.76;75.91;148786.06;5048404;28;20200;-52
2023/05/14 06:26:26;;;;;;;6.83;5.37;;;;;;;14.75;76.29;148783.53;5047990;28;20235;-52
2023/05/14 06:28:53;;;;;;;4.97;4.57;;;;;;;14.74;75.84;148781.03;5047978;28;20197;-52
2023/05/14 06:31:21;;;;;;;7.57;5.47;;;;;;;14.74;76.32;148781.03;5048405;28;20664;-51
2023/05/14 06:33:48;;;;;;;10.73;5.50;;;;;;;14.78;77.15;148791.13;5048696;28;20284;-51
2023/05/14 06:36:15;;;;;;;12.63;5.73;;;;;;;14.84;78.72;148807.50;5048900;28;20196;-53
2023/05/14 06:38:42;;;;;;;8.37;5.30;;;;;;;14.76;81.61;148786.06;5048666;28;20681;-52
2023/05/14 06:41:09;;;;;;;5.73;4.70;;;;;;;14.58;83.98;148741.91;5048465;28;20307;-54
2023/05/14 06:43:35;;;;;;;7.23;5.23;;;;;;;14.70;85.02;148772.19;5049022;28;20284;-51
2023/05/14 06:46:02;;;;;;;7.30;5.30;;;;;;;14.53;89.55;148730.56;5049701;28;20592;-56
2023/05/14 06:48:31;;;;;;;5.53;5.13;;;;;;;14.36;95.82;148687.63;5049735;28;20203;-56
2023/05/14 06:50:58;;;;;;;8.97;5.70;;;;;;;14.32;100.00;148677.56;5049479;28;20200;-55
2023/05/14 06:53:25;;;;;;;7.10;6.47;;;;;;;14.36;100.00;148687.63;5049788;28;20192;-56
2023/05/14 06:55:52;;;;;;;11.10;8.10;;;;;;;14.37;100.00;148690.16;5049476;28;20204;-57
2023/05/14 06:58:19;;;;;;;8.77;6.90;;;;;;;14.38;100.00;148692.69;5048712;28;20612;-53
2023/05/14 07:00:45;;;;;;;10.07;7.17;;;;;;;14.41;100.00;148700.31;5049472;28;20200;-52
2023/05/14 07:03:13;;;;;;;9.13;6.60;;;;;;;14.38;100.00;148692.69;5048488;28;20288;-55
2023/05/14 07:05:43;;;;;;;7.17;6.17;;;;;;;14.33;100.00;148680.09;5051500;28;20910;-57
2023/05/14 07:08:10;;;;;;;8.27;7.30;;;;;;;14.18;100.00;148642.25;5052843;28;20208;-53
2023/05/14 07:10:37;;;;;;;12.10;7.83;;;;;;;14.14;100.00;148633.41;5052933;28;20295;-52
2023/05/14 07:13:05;;;;;;;12.03;7.47;;;;;;;14.02;100.00;148601.88;5053140;28;20288;-52
2023/05/14 07:15:32;;;;;;;8.10;7.30;;;;;;;14.14;100.00;148632.16;5053115;28;20196;-55
2023/05/14 07:17:59;;;;;;;9.13;7.67;;;;;;;14.29;100.00;148669.97;5052224;28;20196;-54
2023/05/14 07:20:26;;;;;;;10.20;8.20;;;;;;;14.33;100.00;148680.09;5052676;28;20208;-53
2023/05/14 07:22:54;;;;;;;10.13;7.80;;;;;;;14.32;100.00;148676.31;5052533;28;20254;-56
2023/05/14 07:25:29;;;;;;;8.97;8.07;;;;;;;14.28;100.00;148667.47;5050193;28;20192;-58
2023/05/14 07:27:56;;;;;;;9.40;8.10;;;;;;;14.26;100.00;148662.41;5051349;28;20232;-53
2023/05/14 07:30:23;;;;;;;9.50;6.77;;;;;;;14.24;100.00;148657.34;5051898;28;20204;-53
2023/05/14 07:32:49;;;;;;;9.60;7.63;;;;;;;14.24;100.00;148656.09;5052767;28;20193;-52
2023/05/14 07:35:16;;;;;;;11.83;7.97;;;;;;;14.17;100.00;148639.72;5052285;28;20580;-54
2023/05/14 07:37:44;;;;;;;10.80;8.10;;;;;;;14.25;100.00;148659.88;5051073;28;20199;-51
2023/05/14 07:40:12;;;;;;;9.33;8.50;;;;;;;14.28;100.00;148667.47;5051230;28;20196;-53
2023/05/14 07:42:39;;;;;;;11.27;8.90;;;;;;;14.28;100.00;148666.19;5051130;28;20242;-53
2023/05/14 07:45:08;;;;;;;10.97;8.57;;;;;;;14.35;100.00;148683.84;5051020;28;20275;-55
2023/05/14 07:47:35;;;;;;;12.70;8.60;;;;;;;14.38;100.00;148691.41;5051237;28;20204;-55
2023/05/14 07:50:02;;;;;;;9.90;8.93;;;;;;;14.37;100.00;148690.16;5050970;28;20193;-54
2023/05/14 07:52:29;;;;;;;10.77;8.97;;;;;;;14.31;100.00;148675.03;5050838;28;20292;-54
2023/05/14 07:54:56;;;;;;;9.37;8.40;;;;;;;14.18;100.00;148642.25;5051739;28;20207;-54
2023/05/14 07:57:25;;;;;;;9.37;8.53;;;;;;;14.09;100.00;148619.56;5051994;28;20732;-53
2023/05/14 07:59:52;;;;;;;13.60;10.70;;;;;;;14.10;100.00;148622.09;5052083;28;20208;-53
2023/05/14 08:02:19;;;;;;;15.40;10.73;;;;;;;14.06;100.00;148613.25;5051930;28;20699;-53
2023/05/14 08:04:45;;;;;;;11.57;9.67;;;;;;;14.13;100.00;148629.63;5052188;28;20570;-52
2023/05/14 08:07:12;;;;;;;12.40;9.23;;;;;;;14.01;100.00;148599.34;5052027;28;20254;-51
2023/05/14 08:09:39;;;;;;;16.03;10.80;;;;;;;13.99;100.00;148594.34;5050879;28;20203;-53
2023/05/14 08:12:07;;;;;;;12.67;11.37;;;;;;;13.92;100.00;148576.66;5051793;28;20216;-56
2023/05/14 08:14:35;;;;;;;10.93;8.80;;;;;;;13.81;100.00;148550.19;5052150;28;20591;-53
2023/05/14 08:17:03;;;;;;;9.67;8.17;;;;;;;13.86;100.00;148561.56;5051777;28;20204;-53
2023/05/14 08:19:29;;;;;;;9.33;8.33;;;;;;;13.90;100.00;148572.88;5050863;28;20204;-53
2023/05/14 08:21:57;;;;;;;11.00;8.73;;;;;;;14.01;100.00;148600.63;5051384;28;20220;-52
2023/05/14 08:24:23;;;;;;;9.70;8.70;;;;;;;14.02;100.00;148601.88;5051671;28;20235;-53
2023/05/14 08:26:51;;;;;;;9.53;7.67;;;;;;;13.95;100.00;148584.25;5050860;28;20203;-53
2023/05/14 08:29:18;;;;;;;9.23;8.33;;;;;;;13.95;100.00;148584.25;5051793;28;20276;-56
2023/05/14 08:31:46;;;;;;;9.60;8.60;;;;;;;13.75;100.00;148536.38;5051571;28;20196;-55
2023/05/14 08:34:13;;;;;;;9.53;8.63;;;;;;;13.84;100.00;148557.78;5051548;28;20196;-55
2023/05/14 08:36:40;;;;;;;8.20;7.50;;;;;;;13.76;100.00;148538.88;5051631;28;20262;-55
2023/05/14 08:39:07;;;;;;;9.70;8.80;;;;;;;13.69;100.00;148519.94;5051367;28;20200;-54
2023/05/14 08:41:34;;;;;;;16.47;9.37;;;;;;;13.49;100.00;148470.81;5051168;28;20608;-52
2023/05/14 08:44:08;;;;;;;9.57;8.60;;;;;;;13.47;100.00;148465.75;5051167;28;20193;-53
2023/05/14 08:46:37;;;;;;;10.57;9.07;;;;;;;13.25;100.00;148410.31;5031321;28;20197;-55
2023/05/14 08:49:16;;;;;;;9.47;8.63;;;;;;;13.07;100.00;148367.44;5036682;28;20291;-56
2023/05/14 08:51:45;;;;;;;11.10;8.93;;;;;;;13.14;100.00;148383.84;5050240;28;20262;-56
2023/05/14 08:54:15;;;;;;;11.73;9.90;;;;;;;13.18;100.00;148392.69;5045490;28;20229;-55
2023/05/14 08:56:44;;;;;;;10.90;9.90;;;;;;;13.15;100.00;148385.13;5037823;28;20323;-55
2023/05/14 08:59:11;;;;;;;11.47;9.10;;;;;;;13.18;100.00;148392.69;5050899;28;20607;-53
2023/05/14 09:01:39;;;;;;;10.90;9.80;;;;;;;13.29;100.00;148420.41;5050197;28;20235;-53
2023/05/14 09:04:09;;;;;;;12.53;9.90;;;;;;;13.38;100.00;148443.09;5050543;28;20631;-54
2023/05/14 09:06:37;;;;;;;10.77;9.67;;;;;;;13.38;100.00;148444.34;5050806;28;20303;-53
2023/05/14 09:09:05;;;;;;;11.27;10.10;;;;;;;13.40;100.00;148448.13;5050555;28;20278;-56
2023/05/14 09:11:32;;;;;;;11.70;10.53;;;;;;;13.30;100.00;148422.94;5044409;28;20224;-54
2023/05/14 09:13:59;;;;;;;12.87;9.80;;;;;;;13.27;100.00;148416.63;5030654;28;20229;-56
2023/05/14 09:16:26;;;;;;;14.13;10.90;;;;;;;13.38;100.00;148443.09;5039208;28;20221;-54
2023/05/14 09:18:53;;;;;;;14.17;11.63;;;;;;;13.48;100.00;148467.03;5049898;28;20230;-53
2023/05/14 09:21:23;;;;;;;14.37;10.60;;;;;;;13.44;100.00;148459.44;5049317;28;20224;-53
2023/05/14 09:23:55;;;;;;;16.37;10.77;;;;;;;13.35;100.00;148435.50;5057709;28;20781;-57
2023/05/14 09:26:24;;;;;;;12.00;10.73;;;;;;;13.27;100.00;148416.63;5068710;28;20719;-54
2023/05/14 09:28:54;;;;;;;11.20;10.03;;;;;;;13.27;100.00;148416.63;5046250;28;20305;-54
2023/05/14 09:31:22;;;;;;;11.73;10.57;;;;;;;13.31;100.00;148426.72;5033035;28;20612;-53
2023/05/14 09:33:51;;;;;;;11.63;10.63;;;;;;;13.37;100.00;148440.56;5050596;28;20221;-53
2023/05/14 09:36:18;;;;;;;14.03;11.10;;;;;;;13.49;100.00;148469.53;5050296;28;20231;-53
2023/05/14 09:38:47;;;;;;;14.03;11.00;;;;;;;13.60;100.00;148497.28;5049732;28;20256;-54
2023/05/14 09:41:15;;;;;;;12.33;10.40;;;;;;;13.64;100.00;148508.63;5046776;28;20221;-54
2023/05/14 09:43:42;;;;;;;12.30;11.10;;;;;;;13.56;100.00;148488.44;5035277;28;20224;-54
2023/05/14 09:46:09;;;;;;;15.13;11.70;;;;;;;13.54;100.00;148482.16;5048976;28;20294;-53
2023/05/14 09:48:36;;;;;;;13.23;11.80;;;;;;;13.66;100.00;148512.38;5050076;28;20211;-51
2023/05/14 09:51:06;;;;;;;13.93;12.13;;;;;;;13.66;100.00;148512.38;5050108;28;20200;-53
2023/05/14 09:53:34;;;;;;;11.77;10.67;;;;;;;13.63;100.00;148504.84;5050565;28;20229;-54
2023/05/14 09:56:02;;;;;;;11.77;10.47;;;;;;;13.63;100.00;148504.84;5050260;28;20207;-54
2023/05/14 09:58:30;;;;;;;11.20;10.10;;;;;;;13.70;100.00;148523.75;5049116;28;20266;-54
2023/05/14 10:00:58;;;;;;;14.00;11.10;;;;;;;13.73;100.00;148530.03;5050041;28;20200;-54
2023/05/14 10:03:27;;;;;;;12.23;10.90;;;;;;;13.87;100.00;148565.34;5049981;28;20223;-52
2023/05/14 10:05:56;;;;;;;12.20;11.03;;;;;;;13.96;100.00;148588.03;5049830;28;20201;-51
2023/05/14 10:08:27;;;;;;;11.97;10.90;;;;;;;14.03;100.00;148605.66;5049738;28;20199;-53
2023/05/14 10:10:55;;;;;;;13.10;11.07;;;;;;;14.11;100.00;148624.56;5049670;28;20221;-53
2023/05/14 10:13:30;;;;;;;13.40;10.30;;;;;;;14.32;100.00;148677.56;5048213;28;20232;-54
2023/05/14 10:16:04;;;;;;;15.27;11.33;;;;;;;14.48;100.00;148716.69;5048834;28;20223;-55
2023/05/14 10:18:35;;;;;;;12.80;11.57;;;;;;;14.49;100.00;148719.19;5048445;28;20239;-53
2023/05/14 10:21:05;;;;;;;12.37;11.27;;;;;;;14.61;100.00;148748.22;5049275;28;20288;-53
2023/05/14 10:23:36;;;;;;;13.50;12.13;;;;;;;14.75;100.00;148783.53;5049137;28;20231;-53
2023/05/14 10:26:04;;;;;;;13.30;11.97;;;;;;;14.56;100.00;148735.63;5049360;28;20651;-53
2023/05/14 10:28:33;;;;;;;14.20;11.87;;;;;;;14.50;100.00;148721.72;5053438;28;20568;-55
2023/05/14 10:31:00;;;;;;;13.37;12.00;;;;;;;14.44;100.00;148707.88;5060635;28;20649;-55
2023/05/14 10:33:27;;;;;;;13.33;11.70;;;;;;;14.20;100.00;148647.31;5069870;28;20719;-53
2023/05/14 10:36:00;;;;;;;13.53;12.33;;;;;;;14.06;100.00;148613.25;5069395;28;20207;-54
2023/05/14 10:38:28;;;;;;;14.50;12.60;;;;;;;13.93;100.00;148579.19;5070076;28;20250;-54
2023/05/14 10:40:59;;;;;;;13.00;11.90;;;;;;;13.98;100.00;148591.81;5071889;28;20199;-54
2023/05/14 10:43:28;;;;;;;16.63;12.57;;;;;;;13.96;100.00;148586.78;5073598;28;20616;-54
2023/05/14 10:45:57;;;;;;;15.73;12.73;;;;;;;14.06;100.00;148611.97;5073418;28;20200;-54
2023/05/14 10:48:25;;;;;;;13.60;12.27;;;;;;;14.06;100.00;148611.97;5056621;28;20192;-53
2023/05/14 10:50:53;;;;;;;13.53;12.13;;;;;;;14.11;100.00;148624.56;5052759;28;20248;-59
2023/05/14 10:53:21;;;;;;;13.30;11.60;;;;;;;14.17;100.00;148640.97;5051745;28;20250;-54
2023/05/14 10:55:48;;;;;;;11.50;10.43;;;;;;;14.30;100.00;148672.50;5051679;28;20204;-55
2023/05/14 10:58:16;;;;;;;12.03;10.80;;;;;;;14.36;100.00;148687.63;5051786;28;20239;-54
2023/05/14 11:00:47;;;;;;;12.50;11.20;;;;;;;14.53;100.00;148730.56;5052011;28;20582;-54
2023/05/14 11:03:16;;;;;;;12.47;10.90;;;;;;;14.67;100.00;148763.38;5052379;28;20231;-55
2023/05/14 11:05:45;;;;;;;12.07;10.90;;;;;;;14.78;100.00;148791.13;5052304;28;20671;-55
2023/05/14 11:08:12;;;;;;;10.87;9.97;;;;;;;14.70;100.00;148772.19;5051770;28;20203;-54
2023/05/14 11:10:39;;;;;;;11.90;10.80;;;;;;;14.75;100.00;148783.53;5051894;28;20826;-54
2023/05/14 11:13:07;;;;;;;12.77;11.53;;;;;;;14.74;100.00;148781.03;5051788;28;20246;-57
2023/05/14 11:15:34;;;;;;;18.43;12.53;;;;;;;14.76;100.00;148786.06;5051283;28;20207;-56
2023/05/14 11:18:01;;;;;;;12.80;11.60;;;;;;;14.97;100.00;148839.06;5050730;28;20212;-55